Wilson Cadiz — 8PSY — position and weather

sailwx.info

Track history (hours):
 
Tides and Currents Weather Stations Pressure Air Temp Water Temp Dewpoint Dewpoint Depression Visibility Wind Speed Wind Dir Waves Ship Positions

Wilson Cadiz

Last reported at 2018-May-26 13:10 UTC. Time now 2018-May-27 08:10 UTC.
Position N 35°58' W 005°38'.

Length 100 m; draft 5.9 m.

Type: Ship. MMSI: 314216000.

Date/timePositionNaut miles runAvg speedWind from/ knotsBaromVisibWave heightAir tempDewpointWater temp
2018-May-26 13:10N 35°58' W 005°38'2 9.3
2018-May-26 13:00N 35°58' W 005°36'5 9.1
2018-May-26 12:30N 35°59' W 005°30'5 8.1
2018-May-26 11:55N 35°59' W 005°24'4 9.2
2018-May-26 11:30N 35°56' W 005°21'3 6.5
2018-May-26 11:00N 35°54' W 005°18'0 0.0
2018-May-26 10:30N 35°54' W 005°18'0 0.0
2018-May-26 10:00N 35°54' W 005°18'0 0.0
2018-May-26 09:30N 35°54' W 005°18'0 0.0
2018-May-26 09:00N 35°54' W 005°18'0 0.0
2018-May-26 08:30N 35°54' W 005°18'0 0.0
2018-May-26 08:00N 35°54' W 005°18'0 0.0
2018-May-26 07:30N 35°54' W 005°18'0 0.0
2018-May-26 07:00N 35°54' W 005°18'1 1.6
2018-May-26 06:30N 35°54' W 005°18'  
2018-May-23 00:41N 36°01' W 004°60'413.7
2018-May-23 00:22N 36°00' W 005°05'513.4
2018-May-23 00:00N 35°60' W 005°11'714.2
2018-May-22 23:30N 35°59' W 005°20'815.3
2018-May-22 23:00N 35°57' W 005°29'714.5
2018-May-22 22:30N 35°55' W 005°38'  
2018-May-17 02:28N 37°14' W 009°46'711.2
2018-May-17 01:52N 37°21' W 009°47'411.2
2018-May-17 01:30N 37°25' W 009°49'511.0
2018-May-17 01:00N 37°30' W 009°50'611.0
2018-May-17 00:30N 37°36' W 009°52'611.1
2018-May-17 00:00N 37°41' W 009°53'510.8
2018-May-16 23:30N 37°46' W 009°55'511.0
2018-May-16 23:00N 37°52' W 009°56'611.2
2018-May-16 22:31N 37°57' W 009°58'611.2
2018-May-16 22:00N 38°03' W 009°60'611.8
2018-May-16 21:30N 38°08' W 010°02'611.5
2018-May-16 21:00N 38°14' W 010°03'611.6
2018-May-16 20:30N 38°20' W 010°05'611.2
2018-May-16 20:00N 38°25' W 010°06'611.1
2018-May-16 19:30N 38°30' W 010°08'611.4
2018-May-16 19:00N 38°36' W 010°09'611.2
2018-May-16 18:30N 38°42' W 010°11'511.0
2018-May-16 18:00N 38°47' W 010°11'611.2
2018-May-16 17:30N 38°53' W 010°11'611.2
2018-May-16 17:01N 38°58' W 010°11'611.3
2018-May-16 16:30N 39°04' W 010°11'611.1
2018-May-16 16:00N 39°09' W 010°11'611.1
2018-May-16 15:30N 39°15' W 010°11'611.3
2018-May-16 15:00N 39°21' W 010°11'611.2
2018-May-16 14:30N 39°26' W 010°11'611.3
2018-May-16 14:00N 39°32' W 010°11'611.2
2018-May-16 13:30N 39°37' W 010°11'  
Track history (hours):
 
Tides and Currents Weather Stations Pressure Air Temp Water Temp Dewpoint Dewpoint Depression Visibility Wind Speed Wind Dir Waves Ship Positions

Wilson Cadiz

Last reported at 2018-May-26 13:10 UTC. Time now 2018-May-27 08:10 UTC.
Position N 35°58' W 005°38'.

Length 100 m; draft 5.9 m.

Type: Ship. MMSI: 314216000.

Date/timePositionNaut miles runAvg speedWind from/ knotsBaromVisibWave heightAir tempDewpointWater temp
2018-May-26 13:10N 35°58' W 005°38'2 9.3
2018-May-26 13:00N 35°58' W 005°36'5 9.1
2018-May-26 12:30N 35°59' W 005°30'5 8.1
2018-May-26 11:55N 35°59' W 005°24'4 9.2
2018-May-26 11:30N 35°56' W 005°21'3 6.5
2018-May-26 11:00N 35°54' W 005°18'0 0.0
2018-May-26 10:30N 35°54' W 005°18'0 0.0
2018-May-26 10:00N 35°54' W 005°18'0 0.0
2018-May-26 09:30N 35°54' W 005°18'0 0.0
2018-May-26 09:00N 35°54' W 005°18'0 0.0
2018-May-26 08:30N 35°54' W 005°18'0 0.0
2018-May-26 08:00N 35°54' W 005°18'0 0.0
2018-May-26 07:30N 35°54' W 005°18'0 0.0
2018-May-26 07:00N 35°54' W 005°18'1 1.6
2018-May-26 06:30N 35°54' W 005°18'  
2018-May-23 00:41N 36°01' W 004°60'413.7
2018-May-23 00:22N 36°00' W 005°05'513.4
2018-May-23 00:00N 35°60' W 005°11'714.2
2018-May-22 23:30N 35°59' W 005°20'815.3
2018-May-22 23:00N 35°57' W 005°29'714.5
2018-May-22 22:30N 35°55' W 005°38'  
2018-May-17 02:28N 37°14' W 009°46'711.2
2018-May-17 01:52N 37°21' W 009°47'411.2
2018-May-17 01:30N 37°25' W 009°49'511.0
2018-May-17 01:00N 37°30' W 009°50'611.0
2018-May-17 00:30N 37°36' W 009°52'611.1
2018-May-17 00:00N 37°41' W 009°53'510.8
2018-May-16 23:30N 37°46' W 009°55'511.0
2018-May-16 23:00N 37°52' W 009°56'611.2
2018-May-16 22:31N 37°57' W 009°58'611.2
2018-May-16 22:00N 38°03' W 009°60'611.8
2018-May-16 21:30N 38°08' W 010°02'611.5
2018-May-16 21:00N 38°14' W 010°03'611.6
2018-May-16 20:30N 38°20' W 010°05'611.2
2018-May-16 20:00N 38°25' W 010°06'611.1
2018-May-16 19:30N 38°30' W 010°08'611.4
2018-May-16 19:00N 38°36' W 010°09'611.2
2018-May-16 18:30N 38°42' W 010°11'511.0
2018-May-16 18:00N 38°47' W 010°11'611.2
2018-May-16 17:30N 38°53' W 010°11'611.2
2018-May-16 17:01N 38°58' W 010°11'611.3
2018-May-16 16:30N 39°04' W 010°11'611.1
2018-May-16 16:00N 39°09' W 010°11'611.1
2018-May-16 15:30N 39°15' W 010°11'611.3
2018-May-16 15:00N 39°21' W 010°11'611.2
2018-May-16 14:30N 39°26' W 010°11'611.3
2018-May-16 14:00N 39°32' W 010°11'611.2
2018-May-16 13:30N 39°37' W 010°11'  

Dump ship's entire track history